Time;durP1;ratioP1;P1;durP2;ratioP2;P2;SDS_P1;SDS_P2;PMS_P1;PMS_P2;Temp;Humidity;BMP_temperature;BMP_pressure;BME280_temperature;BME280_humidity;BME280_pressure;Samples;Min_cycle;Max_cycle;Signal;HPM_P1;HPM_P2
2023/07/07 00:01:56;;;;;;;7.18;3.35;;;19.80;76.10;;;;;;5062002;28;20377;-75
2023/07/07 00:04:21;;;;;;;9.57;3.08;;;19.80;76.10;;;;;;5059366;28;20104;-74
2023/07/07 00:06:47;;;;;;;11.63;3.42;;;19.80;76.10;;;;;;5064025;28;20021;-75
2023/07/07 00:09:13;;;;;;;8.60;2.75;;;19.80;76.20;;;;;;5066728;28;20032;-75
2023/07/07 00:11:39;;;;;;;6.38;3.03;;;19.80;76.20;;;;;;5057853;28;20694;-75
2023/07/07 00:14:04;;;;;;;7.63;3.22;;;19.80;76.20;;;;;;5061301;28;20481;-74
2023/07/07 00:16:30;;;;;;;9.02;3.53;;;19.80;76.10;;;;;;5061403;28;20032;-75
2023/07/07 00:18:59;;;;;;;6.88;3.42;;;19.80;76.20;;;;;;5057674;28;20021;-75
2023/07/07 00:21:25;;;;;;;5.65;3.70;;;19.80;76.20;;;;;;5046892;28;20094;-75
2023/07/07 00:23:53;;;;;;;6.82;3.10;;;19.80;76.20;;;;;;5043429;28;20120;-75
2023/07/07 00:26:19;;;;;;;8.50;3.45;;;19.80;76.20;;;;;;5037124;28;20036;-74
2023/07/07 00:28:45;;;;;;;8.27;3.65;;;19.80;76.20;;;;;;5036878;28;20021;-75
2023/07/07 00:31:11;;;;;;;7.82;3.45;;;19.80;76.20;;;;;;5034296;28;20021;-75
2023/07/07 00:33:36;;;;;;;6.35;3.45;;;19.80;76.20;;;;;;5039821;28;20032;-75
2023/07/07 00:36:02;;;;;;;9.52;3.10;;;19.80;76.20;;;;;;5035620;28;20496;-75
2023/07/07 00:38:28;;;;;;;7.70;3.70;;;19.80;76.20;;;;;;5034381;28;20398;-73
2023/07/07 00:40:54;;;;;;;9.90;3.47;;;19.80;76.20;;;;;;5039416;28;20039;-75
2023/07/07 00:43:20;;;;;;;5.43;3.60;;;19.80;76.20;;;;;;5035491;28;20024;-75
2023/07/07 00:45:46;;;;;;;9.45;3.20;;;19.80;76.20;;;;;;5038601;28;20021;-75
2023/07/07 00:48:19;;;;;;;6.18;3.30;;;19.70;76.10;;;;;;5036803;28;20024;-75
2023/07/07 00:50:57;;;;;;;5.03;3.25;;;19.70;76.10;;;;;;5038254;28;20437;-74
2023/07/07 00:53:23;;;;;;;8.15;3.20;;;19.70;76.20;;;;;;5034960;28;20021;-75
2023/07/07 00:55:51;;;;;;;10.98;3.92;;;19.70;76.10;;;;;;5043492;28;20028;-75
2023/07/07 00:58:20;;;;;;;7.93;4.00;;;19.70;76.20;;;;;;5039154;28;20490;-75
2023/07/07 01:00:52;;;;;;;5.72;2.90;;;19.70;76.20;;;;;;5037279;28;20021;-75
2023/07/07 01:03:26;;;;;;;8.38;3.78;;;19.70;76.20;;;;;;5035915;28;20044;-75
2023/07/07 01:05:56;;;;;;;7.30;3.50;;;19.70;76.20;;;;;;5036962;28;20027;-75
2023/07/07 01:08:23;;;;;;;7.82;3.78;;;19.70;76.20;;;;;;5035380;28;20686;-75
2023/07/07 01:10:48;;;;;;;6.82;3.22;;;19.70;76.20;;;;;;5039266;28;20036;-75
2023/07/07 01:13:14;;;;;;;6.25;3.25;;;19.70;76.10;;;;;;5044754;28;21030;-75
2023/07/07 01:15:57;;;;;;;5.13;3.72;;;19.70;76.10;;;;;;5045670;28;20513;-74
2023/07/07 01:18:58;;;;;;;9.50;3.15;;;19.70;76.10;;;;;;5041156;28;20033;-73
2023/07/07 01:21:45;;;;;;;5.53;2.80;;;19.70;76.10;;;;;;5029159;28;20046;-74
2023/07/07 01:24:24;;;;;;;10.25;3.47;;;19.70;76.10;;;;;;5038983;28;20028;-76
2023/07/07 01:27:32;;;;;;;11.02;3.40;;;19.70;76.20;;;;;;5041986;28;20123;-75
2023/07/07 01:30:16;;;;;;;6.63;3.28;;;19.70;76.20;;;;;;5045715;28;20051;-75
2023/07/07 01:32:43;;;;;;;7.05;3.13;;;19.70;76.10;;;;;;5040567;28;20025;-73
2023/07/07 01:35:14;;;;;;;9.00;3.35;;;19.70;76.20;;;;;;5039264;28;20021;-75
2023/07/07 01:37:40;;;;;;;6.45;3.08;;;19.70;76.20;;;;;;5039720;28;20038;-75
2023/07/07 01:40:07;;;;;;;7.75;3.38;;;19.70;76.20;;;;;;5038917;28;20102;-74
2023/07/07 01:42:41;;;;;;;7.15;3.30;;;19.70;76.20;;;;;;5043125;28;20164;-75
2023/07/07 01:45:38;;;;;;;6.25;3.10;;;19.70;76.20;;;;;;5039648;28;20028;-75
2023/07/07 01:48:21;;;;;;;6.57;3.13;;;19.70;76.10;;;;;;5039842;28;20033;-75
2023/07/07 01:50:49;;;;;;;7.80;3.40;;;19.70;76.10;;;;;;5039174;28;20029;-74
2023/07/07 01:53:21;;;;;;;5.00;2.83;;;19.70;76.10;;;;;;5038784;28;20048;-74
2023/07/07 01:55:51;;;;;;;6.90;3.35;;;19.60;76.00;;;;;;5039964;28;20029;-75
2023/07/07 01:58:19;;;;;;;11.57;2.63;;;19.70;76.10;;;;;;5040624;28;20033;-75
2023/07/07 02:00:45;;;;;;;7.28;3.40;;;19.60;75.90;;;;;;5042224;28;20277;-75
2023/07/07 02:03:11;;;;;;;6.20;2.80;;;19.60;75.90;;;;;;5040850;28;20025;-75
2023/07/07 02:05:37;;;;;;;8.15;3.30;;;19.60;75.90;;;;;;5039189;28;20386;-74
2023/07/07 02:08:03;;;;;;;10.38;3.13;;;19.60;75.80;;;;;;5039645;28;20100;-75
2023/07/07 02:10:29;;;;;;;6.47;3.33;;;19.60;75.80;;;;;;5039848;28;20036;-75
2023/07/07 02:12:55;;;;;;;7.97;3.28;;;19.60;75.80;;;;;;5039813;28;20107;-75
2023/07/07 02:15:20;;;;;;;7.22;2.92;;;19.60;75.80;;;;;;5039027;28;20022;-75
2023/07/07 02:17:47;;;;;;;4.60;2.58;;;19.60;75.70;;;;;;5040638;28;20044;-75
2023/07/07 02:20:12;;;;;;;5.07;3.13;;;19.60;75.80;;;;;;5039495;28;20030;-75
2023/07/07 02:22:38;;;;;;;7.68;3.13;;;19.60;75.80;;;;;;5044966;28;20120;-75
2023/07/07 02:25:05;;;;;;;8.45;3.40;;;19.60;75.70;;;;;;5050477;28;20485;-74
2023/07/07 02:27:30;;;;;;;4.90;3.38;;;19.60;75.70;;;;;;5048877;28;20072;-75
2023/07/07 02:29:56;;;;;;;5.93;3.38;;;19.60;75.80;;;;;;5048393;28;20473;-75
2023/07/07 02:32:22;;;;;;;11.60;3.20;;;19.60;75.80;;;;;;5039734;28;20029;-75
2023/07/07 02:34:48;;;;;;;5.65;3.10;;;19.60;75.80;;;;;;5046977;28;20044;-75
2023/07/07 02:37:18;;;;;;;7.13;3.60;;;19.60;75.80;;;;;;5043951;28;20032;-75
2023/07/07 02:39:44;;;;;;;6.80;3.67;;;19.60;75.90;;;;;;5050002;28;20033;-75
2023/07/07 02:42:10;;;;;;;4.88;3.10;;;19.60;75.80;;;;;;5049615;28;20032;-75
2023/07/07 02:44:36;;;;;;;8.45;3.28;;;19.60;75.90;;;;;;5046416;28;20017;-75
2023/07/07 02:47:02;;;;;;;7.30;2.80;;;19.60;75.90;;;;;;5047155;28;20108;-75
2023/07/07 02:49:27;;;;;;;5.07;3.08;;;19.60;75.90;;;;;;5043574;28;20057;-74
2023/07/07 02:51:53;;;;;;;5.65;3.30;;;19.60;75.90;;;;;;5043029;28;20026;-75
2023/07/07 02:54:18;;;;;;;6.63;3.83;;;19.60;75.90;;;;;;5048533;28;20100;-74
2023/07/07 02:56:44;;;;;;;9.55;3.45;;;19.60;75.90;;;;;;5052643;28;20410;-75
2023/07/07 02:59:10;;;;;;;8.15;3.53;;;19.60;75.90;;;;;;5046077;28;20092;-75
2023/07/07 03:01:35;;;;;;;5.45;2.95;;;19.60;75.90;;;;;;5039855;28;20029;-75
2023/07/07 03:04:01;;;;;;;7.07;3.15;;;19.60;75.90;;;;;;5042833;28;20444;-75
2023/07/07 03:06:27;;;;;;;8.88;3.72;;;19.60;75.80;;;;;;5040127;28;20087;-75
2023/07/07 03:08:53;;;;;;;5.22;2.90;;;19.50;75.70;;;;;;5041546;28;20108;-75
2023/07/07 03:11:20;;;;;;;9.50;3.05;;;19.50;75.70;;;;;;5048467;28;20122;-75
2023/07/07 03:13:48;;;;;;;4.45;2.70;;;19.50;76.40;;;;;;5050233;28;20021;-75
2023/07/07 03:16:23;;;;;;;6.03;3.53;;;19.50;75.60;;;;;;5042632;28;20428;-75
2023/07/07 03:18:51;;;;;;;8.10;3.63;;;19.50;75.70;;;;;;5040315;28;20386;-75
2023/07/07 03:21:18;;;;;;;7.60;3.83;;;19.50;75.70;;;;;;5055976;28;20329;-75
2023/07/07 03:23:44;;;;;;;8.70;3.08;;;19.50;76.40;;;;;;5048894;28;20366;-75
2023/07/07 03:26:13;;;;;;;4.85;3.08;;;19.50;75.60;;;;;;5066323;28;20031;-74
2023/07/07 03:28:40;;;;;;;5.45;3.22;;;19.50;75.60;;;;;;5071316;28;20041;-75
2023/07/07 03:31:17;;;;;;;5.22;3.22;;;19.50;75.60;;;;;;5073088;28;20016;-75
2023/07/07 03:33:44;;;;;;;10.63;3.15;;;19.60;75.70;;;;;;5061626;28;20100;-74
2023/07/07 03:36:12;;;;;;;6.32;3.00;;;19.50;75.60;;;;;;5062300;28;20020;-74
2023/07/07 03:38:39;;;;;;;4.50;3.10;;;19.50;75.60;;;;;;5062461;28;20032;-73
2023/07/07 03:41:06;;;;;;;5.90;3.10;;;19.50;75.60;;;;;;5058629;28;20496;-75
2023/07/07 03:43:33;;;;;;;5.30;2.92;;;19.50;75.50;;;;;;5072087;28;20174;-75
2023/07/07 03:45:59;;;;;;;7.45;3.20;;;19.50;75.60;;;;;;5067797;28;20512;-75
2023/07/07 03:48:25;;;;;;;6.68;2.97;;;19.50;75.50;;;;;;5067320;28;20076;-75
2023/07/07 03:51:01;;;;;;;4.95;3.38;;;19.50;75.50;;;;;;5059331;28;20574;-75
2023/07/07 03:53:28;;;;;;;6.28;3.08;;;19.50;75.50;;;;;;5061472;28;20062;-75
2023/07/07 03:55:54;;;;;;;6.80;3.35;;;19.50;75.50;;;;;;5062514;28;20024;-74
2023/07/07 03:58:22;;;;;;;6.65;3.47;;;19.50;75.50;;;;;;5071336;28;20036;-75
2023/07/07 04:00:48;;;;;;;6.90;2.65;;;19.60;75.60;;;;;;5071182;28;20043;-73
2023/07/07 04:03:15;;;;;;;4.95;2.90;;;19.50;75.70;;;;;;5065916;28;20016;-75
2023/07/07 04:05:45;;;;;;;4.68;2.75;;;19.50;75.60;;;;;;5064290;28;20067;-75
2023/07/07 04:08:11;;;;;;;;;;;19.50;75.60;;;;;;5066075;28;20024;-76
2023/07/07 04:10:38;;;;;;;6.10;2.67;;;19.50;75.60;;;;;;5060713;28;19904;-73
2023/07/07 04:13:04;;;;;;;7.35;3.35;;;19.50;75.60;;;;;;5068855;28;20016;-75
2023/07/07 04:15:30;;;;;;;7.57;3.70;;;19.50;75.60;;;;;;5072874;28;20090;-75
2023/07/07 04:17:56;;;;;;;6.53;3.08;;;19.50;75.70;;;;;;5069972;28;20032;-75
2023/07/07 04:20:23;;;;;;;8.05;3.08;;;19.50;75.60;;;;;;5060688;28;20067;-76
2023/07/07 04:22:48;;;;;;;4.80;2.88;;;19.50;75.50;;;;;;5040164;28;20037;-75
2023/07/07 04:25:16;;;;;;;4.90;2.28;;;19.50;75.50;;;;;;5043395;28;20025;-75
2023/07/07 04:27:44;;;;;;;15.23;3.92;;;19.50;75.50;;;;;;5044195;28;20047;-74
2023/07/07 04:30:11;;;;;;;6.07;2.85;;;19.50;75.50;;;;;;5039978;28;20492;-75
2023/07/07 04:32:38;;;;;;;5.60;3.15;;;19.50;75.50;;;;;;5043865;28;20507;-75
2023/07/07 04:35:04;;;;;;;7.65;3.25;;;19.50;75.60;;;;;;5042886;28;20026;-75
2023/07/07 04:37:33;;;;;;;8.13;3.53;;;19.50;75.60;;;;;;5044759;28;20044;-75
2023/07/07 04:39:58;;;;;;;7.13;3.10;;;19.50;75.70;;;;;;5041159;28;20032;-79
2023/07/07 04:42:24;;;;;;;5.95;3.28;;;19.50;75.70;;;;;;5044499;28;20501;-78
2023/07/07 04:44:50;;;;;;;4.80;3.00;;;19.20;73.20;;;;;;5041195;28;20025;-77
2023/07/07 04:47:15;;;;;;;11.38;3.72;;;18.90;73.80;;;;;;5047156;28;20021;-78
2023/07/07 04:49:41;;;;;;;5.72;3.42;;;18.60;74.50;;;;;;5043097;28;20037;-77
2023/07/07 04:52:07;;;;;;;8.10;3.50;;;18.50;74.10;;;;;;5043627;28;20028;-77
2023/07/07 04:54:35;;;;;;;4.75;3.17;;;18.30;74.00;;;;;;5042853;28;20025;-77
2023/07/07 04:57:03;;;;;;;7.97;3.38;;;18.30;74.40;;;;;;5045368;28;20037;-77
2023/07/07 04:59:30;;;;;;;10.95;3.90;;;18.30;74.20;;;;;;5042702;28;20021;-78
2023/07/07 05:01:56;;;;;;;10.70;3.83;;;18.30;74.70;;;;;;5044904;28;20597;-77
2023/07/07 05:04:22;;;;;;;6.57;3.63;;;18.20;75.00;;;;;;5045076;28;20033;-77
2023/07/07 05:06:47;;;;;;;8.70;3.47;;;18.20;75.20;;;;;;5042345;28;20036;-77
2023/07/07 05:09:14;;;;;;;8.45;3.20;;;18.20;76.00;;;;;;5046049;28;20025;-78
2023/07/07 05:11:39;;;;;;;7.63;3.65;;;18.20;76.40;;;;;;5039300;28;20036;-76
2023/07/07 05:14:05;;;;;;;5.68;3.38;;;18.20;75.90;;;;;;5042575;28;20017;-77
2023/07/07 05:16:33;;;;;;;5.85;3.28;;;18.20;76.50;;;;;;5045276;28;20037;-78
2023/07/07 05:19:00;;;;;;;8.35;4.05;;;18.20;76.00;;;;;;5043839;28;20377;-77
2023/07/07 05:21:26;;;;;;;8.73;3.22;;;18.20;75.60;;;;;;5062481;28;20064;-78
2023/07/07 05:23:52;;;;;;;7.60;3.60;;;18.20;75.70;;;;;;5068420;28;20048;-77
2023/07/07 05:26:19;;;;;;;7.03;3.63;;;18.10;75.90;;;;;;5069403;28;20021;-77
2023/07/07 05:28:45;;;;;;;8.60;3.30;;;18.10;76.00;;;;;;5073231;28;20020;-78
2023/07/07 05:31:10;;;;;;;10.43;3.15;;;18.20;76.20;;;;;;5058365;28;20013;-78
2023/07/07 05:33:38;;;;;;;7.45;3.15;;;18.10;76.20;;;;;;5064740;28;20043;-77
2023/07/07 05:36:05;;;;;;;5.68;3.15;;;18.20;76.30;;;;;;5067365;28;20101;-77
2023/07/07 05:38:31;;;;;;;6.97;3.58;;;18.20;77.00;;;;;;5067387;28;20465;-78
2023/07/07 05:40:57;;;;;;;8.30;4.22;;;18.20;75.80;;;;;;5066224;28;20029;-78
2023/07/07 05:43:25;;;;;;;8.75;3.65;;;18.20;75.50;;;;;;5070906;28;20029;-77
2023/07/07 05:46:15;;;;;;;7.82;3.65;;;18.20;76.10;;;;;;5064776;28;20519;-78
2023/07/07 05:48:41;;;;;;;8.13;3.83;;;18.30;75.90;;;;;;5057139;28;20037;-77
2023/07/07 05:51:11;;;;;;;8.40;3.83;;;18.20;75.70;;;;;;5068812;28;20480;-77
2023/07/07 05:53:40;;;;;;;10.63;3.70;;;18.20;76.00;;;;;;5065433;28;20159;-78
2023/07/07 05:56:09;;;;;;;9.15;3.50;;;18.20;75.90;;;;;;5072285;28;20731;-77
2023/07/07 05:58:35;;;;;;;6.68;3.63;;;18.30;75.70;;;;;;5062676;28;20373;-78
2023/07/07 06:01:01;;;;;;;10.23;3.90;;;18.30;75.20;;;;;;5071217;28;20489;-78
2023/07/07 06:03:28;;;;;;;10.23;3.42;;;18.30;74.70;;;;;;5064294;28;20066;-79
2023/07/07 06:05:54;;;;;;;6.50;3.58;;;18.30;74.80;;;;;;5064818;28;20032;-78
2023/07/07 06:08:19;;;;;;;9.68;4.30;;;18.40;74.80;;;;;;5063777;28;20017;-79
2023/07/07 06:10:49;;;;;;;14.95;3.63;;;18.40;75.10;;;;;;5066278;28;20547;-78
2023/07/07 06:13:23;;;;;;;7.65;3.60;;;18.50;75.40;;;;;;5072298;28;20546;-81
2023/07/07 06:15:52;;;;;;;6.55;3.92;;;18.50;76.00;;;;;;5065945;28;20036;-75
2023/07/07 06:18:18;;;;;;;11.20;4.30;;;18.60;76.00;;;;;;5060545;28;20067;-75
2023/07/07 06:20:52;;;;;;;8.95;4.00;;;18.80;75.60;;;;;;5053568;28;20032;-75
2023/07/07 06:23:18;;;;;;;14.02;4.18;;;18.90;75.50;;;;;;5054153;28;20028;-75
2023/07/07 06:25:44;;;;;;;7.72;4.00;;;19.00;75.20;;;;;;5064877;28;20105;-74
2023/07/07 06:28:09;;;;;;;13.85;5.07;;;19.10;75.20;;;;;;5060862;28;20067;-76
2023/07/07 06:30:35;;;;;;;14.07;4.07;;;19.10;75.30;;;;;;5059308;28;20028;-75
2023/07/07 06:33:02;;;;;;;9.02;4.40;;;19.20;75.10;;;;;;5057572;28;20025;-75
2023/07/07 06:35:29;;;;;;;5.47;3.65;;;19.20;75.10;;;;;;5060863;28;20029;-75
2023/07/07 06:37:54;;;;;;;8.02;4.40;;;19.30;75.20;;;;;;5057252;28;20060;-75
2023/07/07 06:40:21;;;;;;;8.23;4.30;;;19.30;75.60;;;;;;5050391;28;20501;-75
2023/07/07 06:42:48;;;;;;;8.05;4.00;;;19.30;75.60;;;;;;5061283;28;20031;-76
2023/07/07 06:45:14;;;;;;;12.20;4.30;;;19.30;75.60;;;;;;5045387;28;20553;-75
2023/07/07 06:47:39;;;;;;;10.65;4.07;;;19.30;75.60;;;;;;5041542;28;20017;-75
2023/07/07 06:50:06;;;;;;;9.27;4.28;;;19.30;75.40;;;;;;5057335;28;20377;-76
2023/07/07 06:52:32;;;;;;;8.32;4.13;;;19.40;75.90;;;;;;5061164;28;20024;-75
2023/07/07 06:54:58;;;;;;;8.30;4.63;;;19.40;75.30;;;;;;5065433;28;20423;-76
2023/07/07 06:57:24;;;;;;;9.35;3.95;;;19.40;76.10;;;;;;5065094;28;20116;-76
2023/07/07 06:59:50;;;;;;;12.00;3.72;;;19.50;75.40;;;;;;5060644;28;21356;-76
2023/07/07 07:02:16;;;;;;;10.15;4.03;;;19.50;75.60;;;;;;5061615;28;20373;-75
2023/07/07 07:04:42;;;;;;;7.28;4.22;;;19.50;75.30;;;;;;5045008;28;20020;-75
2023/07/07 07:07:09;;;;;;;13.20;4.47;;;19.50;75.50;;;;;;5048224;28;20031;-75
2023/07/07 07:09:35;;;;;;;8.50;3.55;;;19.50;75.10;;;;;;5067585;28;20063;-75
2023/07/07 07:12:01;;;;;;;7.90;3.90;;;19.50;75.00;;;;;;5052382;28;20033;-76
2023/07/07 07:14:26;;;;;;;10.48;4.65;;;19.60;75.00;;;;;;5049635;28;21085;-76
2023/07/07 07:16:52;;;;;;;10.32;4.10;;;19.60;75.00;;;;;;5069289;28;20033;-76
2023/07/07 07:19:17;;;;;;;11.02;3.65;;;19.60;75.00;;;;;;5059534;28;20037;-75
2023/07/07 07:21:43;;;;;;;10.82;4.47;;;19.60;74.90;;;;;;5045371;28;20036;-76
2023/07/07 07:24:09;;;;;;;7.47;4.22;;;19.60;75.00;;;;;;5040702;28;20377;-85
2023/07/07 07:26:34;;;;;;;9.00;3.78;;;19.70;76.20;;;;;;5030879;28;20106;-85
2023/07/07 07:29:00;;;;;;;8.57;4.25;;;19.80;76.00;;;;;;5049091;28;20082;-85
2023/07/07 07:31:26;;;;;;;12.52;4.60;;;19.80;75.70;;;;;;5045905;28;20029;-86
2023/07/07 07:33:54;;;;;;;9.23;4.60;;;19.90;76.80;;;;;;5043114;28;20017;-86
2023/07/07 07:36:20;;;;;;;8.45;4.53;;;19.80;76.60;;;;;;5033537;28;20032;-86
2023/07/07 07:38:46;;;;;;;10.73;4.22;;;19.80;76.70;;;;;;5033885;28;20048;-87
2023/07/07 07:41:12;;;;;;;16.13;5.00;;;19.90;77.60;;;;;;5030091;28;20026;-86
2023/07/07 07:43:38;;;;;;;8.73;4.50;;;19.90;77.20;;;;;;5031747;28;20029;-84
2023/07/07 07:46:04;;;;;;;10.55;4.10;;;19.90;77.60;;;;;;5029201;28;20432;-85
2023/07/07 07:48:29;;;;;;;8.32;4.28;;;20.00;77.80;;;;;;5030069;28;20021;-84
2023/07/07 07:50:55;;;;;;;14.68;4.35;;;20.00;77.20;;;;;;5031101;28;20685;-86
2023/07/07 07:53:22;;;;;;;11.98;4.97;;;20.00;77.10;;;;;;5029785;28;20032;-85
2023/07/07 07:55:48;;;;;;;9.52;5.03;;;20.10;77.20;;;;;;5045893;28;20032;-86
2023/07/07 07:58:13;;;;;;;7.68;4.30;;;20.00;76.20;;;;;;5031874;28;20116;-85
2023/07/07 08:00:39;;;;;;;11.52;5.18;;;20.00;75.50;;;;;;5025787;28;20022;-85
2023/07/07 08:03:04;;;;;;;11.77;4.95;;;20.10;76.30;;;;;;5049797;28;20021;-87
2023/07/07 08:05:31;;;;;;;10.43;5.07;;;20.20;76.60;;;;;;5029528;28;20029;-85
2023/07/07 08:07:58;;;;;;;11.20;5.18;;;20.20;76.10;;;;;;5029902;28;20381;-88
2023/07/07 08:10:23;;;;;;;9.98;4.90;;;20.20;76.50;;;;;;5027920;28;20083;-88
2023/07/07 08:12:49;;;;;;;9.30;4.53;;;20.20;76.60;;;;;;5033907;28;20482;-90
2023/07/07 08:15:15;;;;;;;8.88;4.30;;;20.20;76.30;;;;;;5030271;28;20014;-88
2023/07/07 08:17:40;;;;;;;8.55;4.40;;;20.20;77.00;;;;;;5022265;28;20030;-88
2023/07/07 08:20:19;;;;;;;8.82;4.68;;;20.20;76.80;;;;;;5030615;28;20036;-89
2023/07/07 08:22:45;;;;;;;10.93;4.47;;;20.30;75.90;;;;;;5047115;28;20025;-88
2023/07/07 08:25:10;;;;;;;11.35;4.03;;;20.30;76.90;;;;;;5048216;28;20035;-88
2023/07/07 08:27:36;;;;;;;9.55;4.50;;;20.30;77.00;;;;;;5048339;28;20543;-89
2023/07/07 08:30:03;;;;;;;13.20;5.00;;;20.40;76.70;;;;;;5062650;28;20024;-88
2023/07/07 08:32:29;;;;;;;7.47;3.78;;;20.40;76.10;;;;;;5043560;28;20020;-88
2023/07/07 08:34:54;;;;;;;12.85;6.10;;;20.50;76.50;;;;;;5043052;28;20020;-88
2023/07/07 08:37:20;;;;;;;9.82;4.78;;;20.60;76.10;;;;;;5045847;28;20079;-89
2023/07/07 08:39:47;;;;;;;19.25;5.80;;;20.60;76.00;;;;;;5044034;28;20021;-90
2023/07/07 08:42:39;;;;;;;12.82;4.50;;;20.60;76.70;;;;;;5051026;28;20107;-88
2023/07/07 08:45:13;;;;;;;15.57;4.85;;;20.60;76.90;;;;;;5072464;28;20059;-89
2023/07/07 08:47:47;;;;;;;8.85;4.70;;;20.60;77.50;;;;;;5047843;28;20035;-90
2023/07/07 08:50:17;;;;;;;14.10;5.25;;;20.70;76.70;;;;;;5048358;28;20108;-88
2023/07/07 08:52:52;;;;;;;13.15;5.53;;;20.60;77.30;;;;;;5051281;28;20078;-89
2023/07/07 08:55:50;;;;;;;8.65;4.60;;;20.70;76.80;;;;;;5047070;28;20032;-92
2023/07/07 08:58:23;;;;;;;10.50;4.57;;;20.80;76.90;;;;;;5047020;28;20071;-90
2023/07/07 09:00:52;;;;;;;6.85;3.40;;;20.80;77.10;;;;;;5046358;28;20465;-89
2023/07/07 09:03:38;;;;;;;8.77;4.07;;;20.80;76.80;;;;;;5047385;28;20028;-90
2023/07/07 09:06:22;;;;;;;8.82;3.90;;;20.80;77.80;;;;;;5049453;28;20028;-91
2023/07/07 09:09:40;;;;;;;8.18;4.57;;;20.90;76.80;;;;;;5046373;28;20052;-90
2023/07/07 09:12:24;;;;;;;6.38;3.78;;;20.90;77.70;;;;;;5009223;28;20578;-93
2023/07/07 09:14:53;;;;;;;8.30;3.58;;;20.90;78.20;;;;;;5047536;28;20523;-89
2023/07/07 09:17:25;;;;;;;8.30;4.10;;;21.00;77.00;;;;;;5047658;28;20520;-94
2023/07/07 09:19:53;;;;;;;15.95;4.55;;;21.00;78.10;;;;;;5033257;28;20082;-88
2023/07/07 09:22:30;;;;;;;12.55;4.78;;;21.00;77.20;;;;;;5030303;28;20021;-89
2023/07/07 09:25:19;;;;;;;16.23;3.92;;;21.00;77.20;;;;;;5021609;28;20356;-92
2023/07/07 09:27:52;;;;;;;8.70;4.38;;;21.10;76.20;;;;;;5030644;28;20052;-91
2023/07/07 09:30:39;;;;;;;12.13;4.80;;;21.10;77.10;;;;;;5029341;28;20017;-89
2023/07/07 09:33:16;;;;;;;8.30;4.57;;;21.10;76.90;;;;;;5023682;28;20098;-88
2023/07/07 09:35:49;;;;;;;11.38;4.47;;;21.10;77.30;;;;;;5028767;28;20097;-91
2023/07/07 09:38:49;;;;;;;8.35;4.28;;;21.30;76.00;;;;;;5037445;28;20403;-92
2023/07/07 09:41:32;;;;;;;10.52;4.65;;;21.20;75.40;;;;;;5021631;28;20102;-89
2023/07/07 09:44:22;;;;;;;8.30;4.30;;;21.20;74.20;;;;;;5033383;28;20036;-86
2023/07/07 09:47:15;;;;;;;8.02;4.45;;;21.30;71.40;;;;;;5033326;28;20028;-90
2023/07/07 09:50:01;;;;;;;9.48;4.40;;;21.30;72.10;;;;;;5023713;28;20037;-89
2023/07/07 09:52:46;;;;;;;8.07;4.97;;;21.40;68.30;;;;;;5021778;28;20029;-89
2023/07/07 09:55:21;;;;;;;9.00;3.90;;;21.40;71.30;;;;;;5023024;28;20036;-90
2023/07/07 09:58:16;;;;;;;11.90;4.32;;;21.40;71.60;;;;;;5022377;28;20036;-91
2023/07/07 10:00:48;;;;;;;7.78;3.85;;;21.40;70.20;;;;;;5031826;28;20112;-91
2023/07/07 10:03:25;;;;;;;9.30;4.15;;;21.50;66.00;;;;;;5027462;28;20029;-90
2023/07/07 10:05:53;;;;;;;9.70;3.85;;;21.60;65.80;;;;;;5039686;28;20093;-91
2023/07/07 10:08:19;;;;;;;8.35;4.95;;;21.60;67.60;;;;;;5031585;28;20032;-90
2023/07/07 10:10:47;;;;;;;8.70;4.80;;;21.60;68.30;;;;;;5020674;28;20025;-89
2023/07/07 10:13:14;;;;;;;16.10;4.15;;;21.50;67.30;;;;;;5027762;28;20021;-92
2023/07/07 10:15:57;;;;;;;8.73;4.32;;;21.50;66.80;;;;;;5023035;28;20048;-93
2023/07/07 10:18:26;;;;;;;8.68;4.85;;;21.50;66.60;;;;;;5025919;28;20044;-90
2023/07/07 10:20:54;;;;;;;8.75;4.22;;;21.50;66.20;;;;;;5034658;28;20078;-91
2023/07/07 10:23:20;;;;;;;8.68;4.88;;;21.70;66.80;;;;;;5046750;28;20025;-93
2023/07/07 10:25:46;;;;;;;10.70;5.45;;;21.80;66.00;;;;;;5044119;28;20055;-94
2023/07/07 10:28:16;;;;;;;8.73;4.10;;;21.80;65.80;;;;;;5042896;28;20051;-92
2023/07/07 10:30:43;;;;;;;9.32;4.05;;;21.80;66.40;;;;;;5043664;28;20041;-91
2023/07/07 10:33:11;;;;;;;16.50;4.70;;;22.00;64.80;;;;;;5044129;28;20036;-94
2023/07/07 10:35:37;;;;;;;12.32;4.32;;;22.10;60.60;;;;;;5047953;28;20385;-91
2023/07/07 10:38:04;;;;;;;9.68;4.85;;;21.90;62.70;;;;;;5046141;28;20029;-90
2023/07/07 10:40:31;;;;;;;9.55;4.82;;;21.80;63.80;;;;;;5046892;28;20028;-88
2023/07/07 10:43:07;;;;;;;10.55;4.90;;;21.80;62.40;;;;;;5066601;28;20511;-93
2023/07/07 10:45:48;;;;;;;10.18;4.32;;;21.70;63.00;;;;;;5052673;28;20489;-89
2023/07/07 10:48:15;;;;;;;10.32;4.93;;;21.80;62.40;;;;;;5047585;28;20027;-91
2023/07/07 10:51:10;;;;;;;10.40;4.88;;;21.90;63.70;;;;;;5048709;28;20470;-90
2023/07/07 10:54:14;;;;;;;15.65;5.20;;;22.00;62.40;;;;;;5022943;28;20067;-92
2023/07/07 10:56:49;;;;;;;18.25;5.55;;;22.00;62.40;;;;;;5044348;28;20068;-90
2023/07/07 10:59:38;;;;;;;12.80;5.20;;;22.00;60.20;;;;;;5053393;28;20496;-93
2023/07/07 11:02:12;;;;;;;9.98;4.30;;;21.90;61.10;;;;;;5051147;28;20025;-92
2023/07/07 11:04:56;;;;;;;10.43;5.68;;;22.10;61.20;;;;;;5064041;28;20052;-93
2023/07/07 11:07:40;;;;;;;14.38;4.50;;;22.20;60.20;;;;;;5053612;28;20028;-91
2023/07/07 11:10:15;;;;;;;8.05;4.05;;;22.20;59.90;;;;;;5070917;28;20065;-92
2023/07/07 11:12:50;;;;;;;9.70;4.13;;;22.30;58.70;;;;;;5051689;28;20077;-92
2023/07/07 11:15:31;;;;;;;12.82;5.22;;;22.30;60.70;;;;;;5055475;28;20035;-92
2023/07/07 11:18:07;;;;;;;11.80;4.95;;;22.20;59.40;;;;;;5049801;28;20101;-92
2023/07/07 11:20:39;;;;;;;14.93;4.57;;;22.20;59.70;;;;;;5043886;28;20030;-91
2023/07/07 11:23:24;;;;;;;12.13;5.00;;;22.10;59.40;;;;;;5045897;28;20030;-92
2023/07/07 11:26:23;;;;;;;13.90;5.47;;;22.10;59.10;;;;;;5046762;28;20375;-91
2023/07/07 11:29:02;;;;;;;13.85;5.18;;;22.10;58.40;;;;;;5042672;28;20087;-92
2023/07/07 11:31:36;;;;;;;9.63;5.05;;;22.10;58.00;;;;;;5037677;28;20034;-91
2023/07/07 11:34:02;;;;;;;9.55;4.72;;;22.10;57.90;;;;;;5047695;28;20064;-93
2023/07/07 11:36:46;;;;;;;10.57;4.57;;;22.20;57.60;;;;;;5039246;28;20364;-91
2023/07/07 11:39:41;;;;;;;9.43;4.25;;;22.40;59.50;;;;;;5052158;28;20466;-89
2023/07/07 11:42:39;;;;;;;12.77;4.63;;;22.60;58.20;;;;;;5043374;28;20026;-93
2023/07/07 11:45:08;;;;;;;14.95;5.40;;;22.80;58.00;;;;;;5044623;28;20418;-91
2023/07/07 11:48:01;;;;;;;16.02;5.07;;;22.70;59.10;;;;;;5037357;28;20056;-92
2023/07/07 11:50:45;;;;;;;9.02;4.47;;;22.60;58.60;;;;;;5051026;28;20043;-91
2023/07/07 11:53:49;;;;;;;11.88;4.60;;;22.70;56.80;;;;;;5036273;28;20021;-92
2023/07/07 11:56:42;;;;;;;9.77;4.80;;;22.80;56.20;;;;;;5055195;28;20024;-89
2023/07/07 11:59:13;;;;;;;9.38;4.90;;;22.60;56.00;;;;;;5037609;28;20175;-90
2023/07/07 12:01:47;;;;;;;8.68;4.18;;;22.50;56.70;;;;;;5036187;28;20025;-91
2023/07/07 12:04:23;;;;;;;12.68;4.75;;;22.60;57.00;;;;;;5042122;28;20033;-89
2023/07/07 12:06:57;;;;;;;9.65;4.95;;;22.60;56.10;;;;;;5052941;28;20445;-90
2023/07/07 12:09:25;;;;;;;10.25;4.72;;;22.60;56.50;;;;;;5051675;28;20088;-92
2023/07/07 12:12:19;;;;;;;8.65;4.43;;;22.80;59.60;;;;;;5039752;28;20048;-92
2023/07/07 12:15:14;;;;;;;10.02;4.70;;;22.90;58.50;;;;;;5063902;28;20087;-91
2023/07/07 12:17:50;;;;;;;9.85;4.78;;;23.10;56.70;;;;;;5033246;28;20068;-92
2023/07/07 12:20:27;;;;;;;9.95;4.75;;;23.10;54.70;;;;;;5042900;28;20037;-92
2023/07/07 12:22:55;;;;;;;11.18;5.10;;;23.10;54.20;;;;;;5039971;28;20029;-94
2023/07/07 12:25:28;;;;;;;11.13;5.05;;;23.10;55.80;;;;;;5060638;28;20027;-94
2023/07/07 12:27:54;;;;;;;8.32;4.00;;;23.20;55.40;;;;;;5043235;28;20025;-94
2023/07/07 12:30:23;;;;;;;16.90;5.30;;;23.20;53.80;;;;;;5041743;28;20029;-93
2023/07/07 12:32:50;;;;;;;17.05;5.47;;;23.30;50.90;;;;;;5047738;28;20063;-91
2023/07/07 12:35:17;;;;;;;14.55;5.82;;;23.20;54.50;;;;;;5038489;28;20782;-93
2023/07/07 12:37:43;;;;;;;12.52;4.95;;;23.00;54.50;;;;;;5043968;28;20033;-93
2023/07/07 12:40:16;;;;;;;10.50;4.97;;;23.10;54.70;;;;;;5046722;28;20029;-92
2023/07/07 12:42:43;;;;;;;8.77;4.90;;;23.10;56.00;;;;;;5043488;28;20023;-93
2023/07/07 12:45:18;;;;;;;12.40;5.55;;;23.20;53.20;;;;;;5041874;28;20027;-91
2023/07/07 12:47:54;;;;;;;13.80;4.60;;;23.30;53.00;;;;;;5043552;28;20025;-94
2023/07/07 12:50:25;;;;;;;7.57;4.38;;;23.20;53.20;;;;;;5046429;28;20041;-90
2023/07/07 12:52:53;;;;;;;14.88;5.15;;;23.30;52.70;;;;;;5041689;28;20056;-92
2023/07/07 12:55:28;;;;;;;9.68;4.63;;;23.40;52.70;;;;;;5045783;28;20024;-93
2023/07/07 12:58:22;;;;;;;13.77;5.28;;;23.40;53.50;;;;;;5042904;28;20025;-93
2023/07/07 13:01:02;;;;;;;9.85;4.18;;;23.50;53.90;;;;;;5044851;28;20119;-94
2023/07/07 13:03:28;;;;;;;;;;;23.30;51.10;;;;;;5042639;28;20107;-90